Time;durP1;ratioP1;P1;durP2;ratioP2;P2;SDS_P1;SDS_P2;PMS_P1;PMS_P2;Temp;Humidity;BMP_temperature;BMP_pressure;BME280_temperature;BME280_humidity;BME280_pressure;Samples;Min_cycle;Max_cycle;Signal;HPM_P1;HPM_P2
2022/04/06 00:01:10;;;;;;;12.68;2.15;;;;;;;8.84;71.54;99624.50;5116891;28;20059;-45
2022/04/06 00:03:35;;;;;;;15.05;1.70;;;;;;;8.79;71.37;99622.44;5117104;28;20107;-42
2022/04/06 00:06:01;;;;;;;13.00;2.28;;;;;;;8.84;71.73;99633.38;5098783;28;20096;-42
2022/04/06 00:08:27;;;;;;;11.73;1.73;;;;;;;8.85;71.44;99635.00;5116673;28;20028;-45
2022/04/06 00:10:53;;;;;;;15.40;1.98;;;;;;;8.87;71.23;99640.97;5116828;28;20047;-42
2022/04/06 00:13:18;;;;;;;13.23;2.42;;;;;;;8.86;71.67;99643.88;5117158;28;20080;-43
2022/04/06 00:15:44;;;;;;;12.65;1.95;;;;;;;8.83;71.92;99637.06;5117831;28;20035;-43
2022/04/06 00:18:10;;;;;;;11.93;2.08;;;;;;;8.79;71.62;99626.97;5098970;28;20096;-43
2022/04/06 00:20:36;;;;;;;9.93;2.53;;;;;;;8.82;71.93;99631.91;5098697;28;20055;-44
2022/04/06 00:23:02;;;;;;;11.75;2.00;;;;;;;8.79;72.08;99618.94;5099423;28;20051;-43
2022/04/06 00:25:28;;;;;;;15.38;2.10;;;;;;;8.81;72.12;99631.09;5116701;28;20474;-42
2022/04/06 00:27:53;;;;;;;11.93;1.90;;;;;;;8.82;72.00;99626.56;5117625;28;20046;-43
2022/04/06 00:30:19;;;;;;;19.50;2.45;;;;;;;8.82;72.07;99626.56;5117178;28;20100;-43
2022/04/06 00:32:45;;;;;;;9.63;1.80;;;;;;;8.80;72.14;99624.06;5117204;28;20035;-44
2022/04/06 00:35:38;;;;;;;16.25;2.20;;;;;;;8.73;72.45;99607.19;5098296;28;20048;-43
2022/04/06 00:37:59;;;;;;;8.25;1.80;;;;;;;8.69;72.58;99612.13;5070499;28;20110;-43
2022/04/06 00:40:26;;;;;;;9.63;1.50;;;;;;;8.67;72.22;99608.00;5098252;28;20476;-45
2022/04/06 00:42:53;;;;;;;11.55;1.98;;;;;;;8.63;72.31;99602.22;5116302;28;20073;-45
2022/04/06 00:45:20;;;;;;;13.10;1.90;;;;;;;8.64;72.48;99598.53;5116502;28;20105;-46
2022/04/06 00:47:46;;;;;;;12.32;1.50;;;;;;;8.52;72.17;99578.72;5098055;28;20027;-44
2022/04/06 00:50:12;;;;;;;10.80;1.60;;;;;;;8.65;72.29;99596.66;5097915;28;20475;-44
2022/04/06 00:52:39;;;;;;;7.75;1.67;;;;;;;8.65;71.92;99578.75;5115980;28;20046;-44
2022/04/06 00:55:06;;;;;;;18.77;1.90;;;;;;;8.66;71.65;99572.38;5115391;28;20051;-45
2022/04/06 00:57:33;;;;;;;13.90;1.88;;;;;;;8.66;71.65;99569.69;5081368;28;20375;-45
2022/04/06 00:59:59;;;;;;;12.55;1.98;;;;;;;8.74;71.52;99562.50;5116165;28;20114;-44
2022/04/06 01:02:26;;;;;;;7.50;1.50;;;;;;;8.68;71.29;99546.22;5115955;28;20114;-45
2022/04/06 01:04:52;;;;;;;9.35;1.70;;;;;;;8.65;71.04;99543.94;5098445;28;20051;-46
2022/04/06 01:07:20;;;;;;;9.57;1.30;;;;;;;8.75;71.26;99553.44;5116559;28;20040;-47
2022/04/06 01:09:46;;;;;;;9.23;1.83;;;;;;;8.77;70.95;99538.03;5116749;28;20085;-45
2022/04/06 01:12:13;;;;;;;12.85;1.30;;;;;;;8.74;70.93;99546.44;5097985;28;20035;-44
2022/04/06 01:14:50;;;;;;;12.35;1.27;;;;;;;8.74;70.83;99541.91;5116184;28;20039;-44
2022/04/06 01:17:15;;;;;;;12.25;1.15;;;;;;;8.63;70.76;99543.31;5097508;28;20070;-44
2022/04/06 01:19:44;;;;;;;11.52;1.55;;;;;;;8.65;71.01;99527.06;5097433;28;20028;-45
2022/04/06 01:22:12;;;;;;;7.13;1.10;;;;;;;8.60;71.02;99538.41;5097219;28;20069;-45
2022/04/06 01:24:38;;;;;;;13.18;1.63;;;;;;;8.51;71.15;99528.91;5097554;28;20387;-44
2022/04/06 01:27:05;;;;;;;13.40;1.10;;;;;;;8.50;71.02;99516.56;5097123;28;20050;-43
2022/04/06 01:29:32;;;;;;;12.52;1.42;;;;;;;8.55;71.25;99516.78;5097523;28;20077;-45
2022/04/06 01:32:17;;;;;;;11.95;1.88;;;;;;;8.57;71.04;99516.56;5080448;28;20543;-44
2022/04/06 01:34:43;;;;;;;12.27;1.70;;;;;;;8.54;71.27;99531.16;5115804;28;20361;-45
2022/04/06 01:37:10;;;;;;;11.35;1.73;;;;;;;8.47;70.84;99491.03;5097118;28;20032;-44
2022/04/06 01:39:37;;;;;;;5.60;1.40;;;;;;;8.53;71.05;99510.81;5115152;28;20032;-48
2022/04/06 01:42:05;;;;;;;10.35;1.65;;;;;;;8.54;70.72;99512.44;5115199;28;20030;-44
2022/04/06 01:44:32;;;;;;;14.95;1.50;;;;;;;8.52;71.22;99493.09;5097259;28;20020;-44
2022/04/06 01:46:59;;;;;;;14.43;1.73;;;;;;;8.51;70.97;99491.47;5096997;28;20023;-44
2022/04/06 01:52:12;;;;;;;13.50;1.92;;;;;;;8.49;70.63;99480.13;5100233;28;20392;-44
2022/04/06 01:54:40;;;;;;;7.00;1.40;;;;;;;8.48;70.99;99475.81;5115195;28;20028;-44
2022/04/06 01:57:06;;;;;;;13.80;1.33;;;;;;;8.48;70.62;99479.28;5115746;28;20080;-45
2022/04/06 01:59:32;;;;;;;7.40;1.02;;;;;;;8.49;70.81;99475.59;5115981;28;20106;-46
2022/04/06 02:01:59;;;;;;;10.50;1.50;;;;;;;8.51;70.55;99468.19;5115109;28;20480;-45
2022/04/06 02:04:25;;;;;;;11.65;1.27;;;;;;;8.57;70.64;99463.88;5115133;28;20050;-45
2022/04/06 02:06:50;;;;;;;8.93;1.67;;;;;;;8.53;69.86;99457.28;5114349;28;20110;-45
2022/04/06 02:09:17;;;;;;;10.63;1.30;;;;;;;8.63;69.97;99463.03;5115307;28;20026;-46
2022/04/06 02:11:44;;;;;;;11.20;1.40;;;;;;;8.68;69.62;99457.09;5096830;28;20456;-46
2022/04/06 02:14:09;;;;;;;10.57;1.40;;;;;;;8.71;69.67;99459.31;5115014;28;20035;-49
2022/04/06 02:16:37;;;;;;;9.45;1.23;;;;;;;8.69;69.29;99439.97;5114836;28;20031;-49
2022/04/06 02:19:04;;;;;;;7.25;1.13;;;;;;;8.73;69.47;99433.22;5115024;28;20027;-44
2022/04/06 02:21:30;;;;;;;5.88;1.20;;;;;;;8.73;69.73;99443.91;5114744;28;20032;-45
2022/04/06 02:23:56;;;;;;;8.93;1.35;;;;;;;8.64;69.82;99410.34;5114656;28;20087;-47
2022/04/06 02:26:22;;;;;;;6.03;0.90;;;;;;;8.67;70.04;99412.59;5114615;28;20476;-44
2022/04/06 02:28:47;;;;;;;7.10;1.45;;;;;;;8.72;69.96;99437.72;5079807;28;20437;-44
2022/04/06 02:31:13;;;;;;;6.88;1.10;;;;;;;8.69;70.16;99403.34;5114589;28;20054;-45
2022/04/06 02:33:39;;;;;;;10.27;1.45;;;;;;;8.72;70.11;99431.53;5096442;28;20084;-44
2022/04/06 02:36:05;;;;;;;5.18;0.85;;;;;;;8.75;70.33;99417.75;5114388;28;20027;-44
2022/04/06 02:38:31;;;;;;;3.88;1.10;;;;;;;8.76;70.10;99415.91;5114387;28;20024;-43
2022/04/06 02:40:57;;;;;;;4.97;1.10;;;;;;;8.77;69.90;99406.84;5114273;28;20148;-44
2022/04/06 02:43:23;;;;;;;5.95;0.90;;;;;;;8.79;69.97;99404.78;5095959;28;20460;-44
2022/04/06 02:45:49;;;;;;;6.63;1.23;;;;;;;8.80;70.15;99407.22;5113849;28;20490;-44
2022/04/06 02:48:16;;;;;;;3.92;1.35;;;;;;;8.83;70.02;99392.63;5096062;28;20039;-44
2022/04/06 02:50:42;;;;;;;5.55;0.80;;;;;;;8.79;69.99;99376.16;5096224;28;20032;-44
2022/04/06 02:53:08;;;;;;;4.55;0.65;;;;;;;8.80;70.19;99391.16;5095691;28;20020;-45
2022/04/06 02:55:34;;;;;;;6.05;1.02;;;;;;;8.85;69.72;99396.72;5113989;28;20077;-44
2022/04/06 02:57:59;;;;;;;6.32;0.70;;;;;;;8.83;69.87;99388.09;5096220;28;20047;-43
2022/04/06 03:00:26;;;;;;;7.22;1.27;;;;;;;8.74;69.86;99364.41;5095820;28;20032;-44
2022/04/06 03:02:52;;;;;;;6.30;1.05;;;;;;;8.88;69.76;99387.47;5095456;28;20031;-43
2022/04/06 03:05:18;;;;;;;7.18;1.10;;;;;;;8.91;69.67;99373.66;5113469;28;20093;-44
2022/04/06 03:07:43;;;;;;;3.08;0.80;;;;;;;8.86;69.74;99357.41;5113969;28;20031;-44
2022/04/06 03:10:09;;;;;;;4.97;1.30;;;;;;;8.86;69.85;99358.22;5113987;28;20043;-45
2022/04/06 03:12:35;;;;;;;5.32;0.75;;;;;;;8.90;69.75;99380.03;5113827;28;20077;-44
2022/04/06 03:15:01;;;;;;;5.22;0.85;;;;;;;8.90;69.95;99358.63;5096098;28;20028;-43
2022/04/06 03:17:27;;;;;;;3.05;0.70;;;;;;;8.89;69.83;99352.44;5079019;28;20051;-45
2022/04/06 03:19:53;;;;;;;3.53;0.75;;;;;;;8.91;69.95;99358.44;5114248;28;20077;-44
2022/04/06 03:22:18;;;;;;;5.78;1.05;;;;;;;8.66;70.20;99303.91;5096141;28;20031;-46
2022/04/06 03:24:45;;;;;;;9.43;0.93;;;;;;;8.92;70.22;99351.19;5114051;28;20028;-43
2022/04/06 03:27:11;;;;;;;5.03;0.77;;;;;;;8.90;70.33;99332.66;5095888;28;20019;-45
2022/04/06 03:29:37;;;;;;;7.40;1.00;;;;;;;8.90;70.71;99332.66;5113593;28;20035;-45
2022/04/06 03:32:03;;;;;;;5.80;0.93;;;;;;;8.84;70.52;99319.28;5113630;28;20032;-43
2022/04/06 03:34:29;;;;;;;4.43;0.73;;;;;;;8.89;71.29;99320.28;5113603;28;20039;-45
2022/04/06 03:36:55;;;;;;;3.45;0.80;;;;;;;8.90;71.04;99331.84;5113589;28;20028;-45
2022/04/06 03:39:21;;;;;;;6.13;0.85;;;;;;;8.80;71.03;99315.41;5113563;28;20052;-44
2022/04/06 03:41:46;;;;;;;5.68;1.02;;;;;;;8.91;71.03;99330.81;5095486;28;20032;-49
2022/04/06 03:44:12;;;;;;;9.73;1.27;;;;;;;8.90;71.23;99335.34;5113921;28;20482;-43
2022/04/06 03:46:38;;;;;;;10.43;0.95;;;;;;;8.93;70.98;99322.56;5113488;28;20110;-43
2022/04/06 03:49:04;;;;;;;5.22;0.90;;;;;;;8.90;71.38;99318.47;5113599;28;20031;-50
2022/04/06 03:51:29;;;;;;;5.25;1.08;;;;;;;8.89;71.14;99314.13;5095469;28;20510;-43
2022/04/06 03:53:55;;;;;;;7.15;1.20;;;;;;;8.84;71.01;99301.41;5113407;28;20024;-43
2022/04/06 03:56:21;;;;;;;6.70;0.60;;;;;;;8.81;71.12;99295.63;5113644;28;20024;-43
2022/04/06 03:58:47;;;;;;;8.80;0.80;;;;;;;8.81;70.76;99290.28;5095329;28;20076;-45
2022/04/06 04:01:13;;;;;;;6.95;1.00;;;;;;;8.73;71.09;99275.28;5095124;28;20027;-45
2022/04/06 04:03:38;;;;;;;5.85;0.77;;;;;;;8.78;71.11;99280.81;5094828;28;20063;-45
2022/04/06 04:06:04;;;;;;;4.90;1.02;;;;;;;8.78;71.19;99277.31;5113579;28;20092;-43
2022/04/06 04:08:30;;;;;;;5.25;0.70;;;;;;;8.66;71.60;99261.09;5114270;28;20036;-46
2022/04/06 04:10:56;;;;;;;6.88;0.90;;;;;;;8.74;71.60;99271.56;5113400;28;20055;-46
2022/04/06 04:13:22;;;;;;;7.93;0.98;;;;;;;8.75;71.97;99267.84;5113684;28;20111;-46
2022/04/06 04:15:47;;;;;;;6.35;1.00;;;;;;;8.72;72.23;99261.06;5113480;28;20115;-44
2022/04/06 04:18:13;;;;;;;4.78;0.90;;;;;;;8.69;72.40;99261.50;5113288;28;20413;-44
2022/04/06 04:20:41;;;;;;;3.05;0.60;;;;;;;8.55;72.00;99238.47;5113255;28;20031;-43
2022/04/06 04:23:07;;;;;;;4.80;0.90;;;;;;;8.59;72.08;99228.19;5095655;28;20434;-43
2022/04/06 04:25:34;;;;;;;4.07;0.70;;;;;;;8.66;72.03;99245.84;5113095;28;20118;-50
2022/04/06 04:27:59;;;;;;;10.27;1.00;;;;;;;8.64;71.76;99228.38;5094975;28;20079;-44
2022/04/06 04:30:25;;;;;;;8.15;1.35;;;;;;;8.67;71.54;99231.44;5116119;28;20097;-45
2022/04/06 04:32:51;;;;;;;4.25;1.00;;;;;;;8.62;71.85;99223.22;5081701;28;20395;-43
2022/04/06 04:35:17;;;;;;;4.47;0.80;;;;;;;8.64;71.84;99221.16;5081532;28;20439;-46
2022/04/06 04:37:43;;;;;;;9.32;1.20;;;;;;;8.64;71.92;99215.81;5116785;28;20467;-48
2022/04/06 04:40:09;;;;;;;5.80;1.08;;;;;;;8.75;72.09;99226.88;5116369;28;20027;-45
2022/04/06 04:42:35;;;;;;;4.72;1.50;;;;;;;8.68;72.08;99225.03;5116432;28;20035;-43
2022/04/06 04:45:01;;;;;;;9.00;0.98;;;;;;;8.78;72.29;99218.41;5098170;28;20486;-45
2022/04/06 04:47:29;;;;;;;3.75;0.82;;;;;;;8.67;72.17;99179.75;5098042;28;20035;-45
2022/04/06 04:49:55;;;;;;;5.40;0.70;;;;;;;8.74;72.30;99206.50;5116072;28;20077;-44
2022/04/06 04:52:21;;;;;;;4.22;1.00;;;;;;;8.79;72.67;99209.38;5116210;28;20024;-48
2022/04/06 04:54:47;;;;;;;3.20;1.17;;;;;;;8.79;72.62;99209.38;5115879;28;20122;-47
2022/04/06 04:57:13;;;;;;;6.05;0.80;;;;;;;8.80;72.45;99209.13;5115998;28;20113;-44
2022/04/06 04:59:39;;;;;;;2.88;0.77;;;;;;;8.84;72.71;99207.69;5097788;28;20052;-46
2022/04/06 05:02:05;;;;;;;4.07;1.10;;;;;;;8.85;72.93;99208.50;5115908;28;20070;-44
2022/04/06 05:04:31;;;;;;;3.63;0.60;;;;;;;8.88;72.96;99197.38;5094048;28;20101;-44
2022/04/06 05:06:57;;;;;;;3.17;0.63;;;;;;;8.94;72.87;99187.66;5093884;28;20552;-44
2022/04/06 05:09:22;;;;;;;3.15;0.50;;;;;;;8.96;72.67;99213.19;5094044;28;20122;-45
2022/04/06 05:11:48;;;;;;;8.27;1.25;;;;;;;9.01;72.89;99194.63;5095265;28;20396;-45
2022/04/06 05:14:14;;;;;;;4.32;0.63;;;;;;;9.01;73.24;99208.00;5110764;28;20104;-44
2022/04/06 05:16:40;;;;;;;2.75;0.50;;;;;;;9.10;72.98;99205.88;5095173;28;20039;-45
2022/04/06 05:19:05;;;;;;;2.92;0.60;;;;;;;9.14;72.77;99227.69;5095110;28;20032;-48
2022/04/06 05:21:31;;;;;;;2.05;0.57;;;;;;;9.16;73.90;99209.59;5093652;28;20028;-45
2022/04/06 05:23:58;;;;;;;3.58;0.70;;;;;;;9.13;74.85;99212.69;5095036;28;20491;-46
2022/04/06 05:26:24;;;;;;;3.35;0.63;;;;;;;9.04;75.02;99182.66;5094858;28;20476;-48
2022/04/06 05:28:49;;;;;;;4.55;0.63;;;;;;;9.06;75.17;99175.22;5094994;28;20043;-45
2022/04/06 05:31:17;;;;;;;1.65;0.40;;;;;;;9.06;74.84;99177.91;5093612;28;20472;-48
2022/04/06 05:33:44;;;;;;;2.55;0.50;;;;;;;9.07;74.71;99192.94;5094838;28;20575;-44
2022/04/06 05:36:10;;;;;;;1.42;0.35;;;;;;;9.03;74.47;99189.88;5094697;28;20032;-45
2022/04/06 05:38:36;;;;;;;1.48;0.52;;;;;;;9.12;74.56;99193.13;5094747;28;20624;-47
2022/04/06 05:41:03;;;;;;;2.20;0.70;;;;;;;9.14;74.49;99177.66;5094454;28;20036;-47
2022/04/06 05:43:28;;;;;;;8.20;0.70;;;;;;;9.09;74.29;99158.72;5094410;28;20024;-43
2022/04/06 05:45:55;;;;;;;0.85;0.40;;;;;;;9.20;73.98;99182.16;5094574;28;20039;-45
2022/04/06 05:48:21;;;;;;;5.18;0.50;;;;;;;9.19;73.63;99177.00;5094385;28;20042;-46
2022/04/06 05:50:46;;;;;;;1.52;0.50;;;;;;;9.23;73.88;99179.03;5094402;28;20028;-44
2022/04/06 05:53:12;;;;;;;2.35;0.50;;;;;;;8.98;73.71;99146.03;5093269;28;20028;-46
2022/04/06 05:55:38;;;;;;;1.38;0.52;;;;;;;9.20;73.34;99171.44;5094551;28;20020;-46
2022/04/06 05:58:04;;;;;;;6.68;0.70;;;;;;;9.17;73.50;99154.97;5094394;28;20123;-47
2022/04/06 06:00:30;;;;;;;5.78;0.50;;;;;;;9.26;73.19;99162.50;5094206;28;20031;-45
2022/04/06 06:02:56;;;;;;;1.95;0.40;;;;;;;9.29;72.79;99162.09;5092719;28;20516;-44
2022/04/06 06:05:22;;;;;;;4.63;0.55;;;;;;;9.35;72.68;99167.63;5109190;28;20105;-47
2022/04/06 06:07:47;;;;;;;3.05;1.50;;;;;;;9.37;71.95;99169.03;5114525;28;20050;-49
2022/04/06 06:10:13;;;;;;;5.80;1.73;;;;;;;9.38;72.08;99161.81;5114777;28;20057;-46
2022/04/06 06:12:39;;;;;;;4.97;1.23;;;;;;;9.31;72.43;99161.88;5096151;28;20024;-46
2022/04/06 06:15:06;;;;;;;4.30;0.60;;;;;;;9.34;72.90;99156.06;5079152;28;20024;-47
2022/04/06 06:17:38;;;;;;;3.03;1.00;;;;;;;9.38;72.95;99143.06;5114550;28;20095;-46
2022/04/06 06:20:04;;;;;;;2.28;0.93;;;;;;;9.41;72.91;99151.47;5114308;28;20033;-45
2022/04/06 06:22:31;;;;;;;3.72;0.70;;;;;;;9.43;72.93;99146.72;5113981;28;20031;-45
2022/04/06 06:24:56;;;;;;;6.60;0.70;;;;;;;9.45;73.11;99150.03;5114392;28;20043;-45
2022/04/06 06:27:23;;;;;;;1.13;0.40;;;;;;;9.46;72.59;99142.81;5095796;28;20036;-48
2022/04/06 06:29:49;;;;;;;3.50;0.52;;;;;;;9.47;72.53;99153.31;5114259;28;20063;-47
2022/04/06 06:32:15;;;;;;;3.75;0.93;;;;;;;9.48;72.38;99152.25;5114046;28;20042;-50
2022/04/06 06:34:41;;;;;;;4.55;0.52;;;;;;;9.50;72.79;99142.13;5095711;28;20039;-47
2022/04/06 06:37:07;;;;;;;1.60;0.68;;;;;;;9.47;72.64;99134.53;5096115;28;20517;-49
2022/04/06 06:39:33;;;;;;;3.67;0.65;;;;;;;9.51;72.78;99132.25;5114026;28;20020;-45
2022/04/06 06:41:59;;;;;;;2.25;0.70;;;;;;;9.50;71.95;99136.78;5113841;28;20486;-44
2022/04/06 06:44:24;;;;;;;3.08;1.15;;;;;;;9.52;71.62;99135.75;5114390;28;20035;-48
2022/04/06 06:46:50;;;;;;;2.92;0.60;;;;;;;9.53;71.33;99132.84;5113727;28;20034;-46
2022/04/06 06:49:16;;;;;;;2.05;0.60;;;;;;;9.47;71.07;99102.38;5096001;28;20364;-47
2022/04/06 06:51:42;;;;;;;1.88;0.70;;;;;;;9.52;71.17;99119.66;5113477;28;20467;-49
2022/04/06 06:54:08;;;;;;;2.60;0.35;;;;;;;9.58;71.30;99130.31;5095532;28;20383;-46
2022/04/06 06:56:34;;;;;;;3.20;0.40;;;;;;;9.59;71.64;99126.59;5113658;28;20030;-46
2022/04/06 06:58:59;;;;;;;2.00;0.50;;;;;;;9.61;71.82;99145.16;5078510;28;20028;-46
2022/04/06 07:01:26;;;;;;;1.10;0.50;;;;;;;9.61;71.78;99123.69;5113370;28;20042;-46
2022/04/06 07:03:51;;;;;;;4.07;0.77;;;;;;;9.54;72.12;99112.22;5095119;28;20112;-45
2022/04/06 07:06:17;;;;;;;2.20;0.60;;;;;;;9.63;72.11;99135.03;5113641;28;20119;-46
2022/04/06 07:08:43;;;;;;;2.85;0.52;;;;;;;9.60;72.49;99122.88;5113476;28;20028;-47
2022/04/06 07:11:09;;;;;;;2.15;0.68;;;;;;;9.66;72.31;99129.22;5113960;28;20037;-48
2022/04/06 07:13:36;;;;;;;2.53;0.55;;;;;;;9.69;71.88;99132.28;5095670;28;20034;-45
2022/04/06 07:16:05;;;;;;;1.48;0.50;;;;;;;9.73;72.17;99124.59;5095445;28;20024;-43
2022/04/06 07:18:32;;;;;;;2.78;0.50;;;;;;;9.79;71.49;99115.69;5094980;28;20059;-44
2022/04/06 07:20:58;;;;;;;6.18;0.70;;;;;;;9.77;71.11;99106.22;5095113;28;20037;-45
2022/04/06 07:23:24;;;;;;;3.85;0.65;;;;;;;9.85;70.97;99116.66;5078882;28;20038;-47
2022/04/06 07:25:50;;;;;;;2.35;0.75;;;;;;;9.78;71.19;99107.88;5113659;28;20391;-43
2022/04/06 07:28:16;;;;;;;3.05;0.57;;;;;;;9.76;70.92;99099.22;5113252;28;20028;-43
2022/04/06 07:30:41;;;;;;;7.65;1.13;;;;;;;9.85;70.69;99104.06;5113526;28;20480;-43
2022/04/06 07:33:09;;;;;;;4.20;0.82;;;;;;;9.88;70.87;99108.19;5078360;28;20027;-43
2022/04/06 07:35:37;;;;;;;4.72;1.45;;;;;;;9.86;71.17;99108.41;5114951;28;20024;-44
2022/04/06 07:38:03;;;;;;;2.47;0.50;;;;;;;9.88;70.79;99100.13;5115528;28;20054;-43
2022/04/06 07:40:28;;;;;;;6.22;0.63;;;;;;;9.96;71.49;99105.19;5097314;28;20454;-44
2022/04/06 07:42:54;;;;;;;3.28;0.50;;;;;;;9.95;72.71;99100.06;5115542;28;20028;-43
2022/04/06 07:45:21;;;;;;;2.17;0.63;;;;;;;10.00;74.28;99118.97;5113845;28;20035;-43
2022/04/06 07:47:49;;;;;;;7.07;1.05;;;;;;;9.90;74.71;99098.06;5113627;28;20452;-44
2022/04/06 07:50:16;;;;;;;7.53;0.93;;;;;;;9.99;74.63;99106.59;5113604;28;20071;-43
2022/04/06 07:52:43;;;;;;;8.13;0.93;;;;;;;9.95;74.48;99105.41;5114515;28;20030;-43
2022/04/06 07:55:10;;;;;;;4.20;1.00;;;;;;;9.94;74.70;99098.44;5113545;28;20028;-45
2022/04/06 07:57:37;;;;;;;3.55;1.17;;;;;;;9.95;75.51;99092.81;5095067;28;20028;-45
2022/04/06 08:00:07;;;;;;;5.43;0.90;;;;;;;9.94;75.08;99090.38;5113164;28;20062;-45
2022/04/06 08:02:33;;;;;;;3.88;1.08;;;;;;;10.06;75.11;99093.94;5078265;28;20035;-43
2022/04/06 08:04:59;;;;;;;3.33;0.73;;;;;;;10.18;74.42;99073.38;5115237;28;20059;-47
2022/04/06 08:07:25;;;;;;;1.92;0.52;;;;;;;10.21;73.48;99074.78;5098545;28;20032;-44
2022/04/06 08:09:51;;;;;;;2.42;0.73;;;;;;;10.24;73.83;99079.69;5098774;28;20035;-43
2022/04/06 08:12:16;;;;;;;2.35;0.70;;;;;;;10.26;73.08;99093.72;5116887;28;20106;-43
2022/04/06 08:14:42;;;;;;;5.63;0.85;;;;;;;10.26;73.15;99078.41;5098602;28;20152;-44
2022/04/06 08:17:08;;;;;;;5.00;1.10;;;;;;;10.36;72.83;99064.50;5116711;28;20024;-46
2022/04/06 08:19:34;;;;;;;2.47;0.90;;;;;;;10.52;72.04;99070.28;5117063;28;20085;-44
2022/04/06 08:22:00;;;;;;;4.10;0.60;;;;;;;10.54;71.29;99057.47;5116520;28;20484;-44
2022/04/06 08:24:27;;;;;;;2.22;0.73;;;;;;;10.67;70.36;99061.81;5116800;28;20325;-44
2022/04/06 08:26:53;;;;;;;3.75;0.88;;;;;;;10.75;69.15;99054.25;5098210;28;20094;-45
2022/04/06 08:29:19;;;;;;;7.38;1.00;;;;;;;10.82;68.91;99051.47;5116610;28;20046;-44
2022/04/06 08:31:44;;;;;;;2.05;0.63;;;;;;;10.87;68.42;99051.59;5098447;28;20032;-45
2022/04/06 08:34:10;;;;;;;5.63;0.80;;;;;;;10.96;68.43;99049.41;5116567;28;20109;-45
2022/04/06 08:36:36;;;;;;;3.95;0.77;;;;;;;11.01;66.92;99041.44;5116349;28;20428;-48
2022/04/06 08:39:03;;;;;;;4.53;0.80;;;;;;;11.00;67.20;99056.75;5116608;28;20031;-51
2022/04/06 08:41:30;;;;;;;5.55;1.00;;;;;;;10.98;66.88;99042.75;5117258;28;20067;-48
2022/04/06 08:43:56;;;;;;;4.00;1.00;;;;;;;11.05;66.52;99048.03;5116551;28;20027;-45
2022/04/06 08:46:22;;;;;;;3.60;0.80;;;;;;;11.01;66.62;99057.56;5064726;28;20107;-47
2022/04/06 08:48:49;;;;;;;2.30;1.00;;;;;;;11.08;66.88;99057.47;5098337;28;20074;-45
2022/04/06 08:51:17;;;;;;;6.10;0.82;;;;;;;11.24;66.57;99043.34;5116271;28;20031;-46
2022/04/06 08:53:44;;;;;;;3.83;0.93;;;;;;;11.36;65.82;99044.16;5115996;28;20092;-46
2022/04/06 08:56:13;;;;;;;3.38;0.82;;;;;;;11.43;65.13;99038.69;5116273;28;20479;-46
2022/04/06 08:58:40;;;;;;;3.25;0.90;;;;;;;11.46;64.69;99048.13;5116399;28;20043;-48
2022/04/06 09:01:06;;;;;;;6.97;1.00;;;;;;;11.51;63.82;99030.25;5097900;28;20027;-50
2022/04/06 09:03:32;;;;;;;2.95;0.77;;;;;;;11.58;63.91;99038.19;5115868;28;20098;-46
2022/04/06 09:06:08;;;;;;;6.88;1.02;;;;;;;11.57;64.01;99050.84;5097406;28;20189;-44
2022/04/06 09:08:39;;;;;;;3.90;0.90;;;;;;;11.42;64.49;99045.94;5115805;28;20070;-48
2022/04/06 09:11:10;;;;;;;2.85;0.88;;;;;;;11.54;64.22;99040.53;5116087;28;20027;-45
2022/04/06 09:13:36;;;;;;;1.58;0.60;;;;;;;11.46;64.57;99040.91;5115875;28;20027;-45
2022/04/06 09:16:04;;;;;;;4.70;0.95;;;;;;;11.28;64.61;99038.34;5097328;28;20046;-47
2022/04/06 09:18:35;;;;;;;4.50;0.40;;;;;;;11.21;66.05;99036.56;5097255;28;20027;-45
2022/04/06 09:21:02;;;;;;;3.83;0.52;;;;;;;11.13;66.70;99038.78;5115578;28;20368;-46
2022/04/06 09:23:30;;;;;;;2.67;0.55;;;;;;;11.14;66.57;99025.09;5115473;28;20024;-47
2022/04/06 09:26:03;;;;;;;2.67;0.50;;;;;;;11.60;65.50;99044.16;5115743;28;20054;-47
2022/04/06 09:28:29;;;;;;;3.33;0.40;;;;;;;11.73;65.08;99032.34;5080380;28;20033;-48
2022/04/06 09:30:55;;;;;;;3.22;0.50;;;;;;;11.86;65.18;99033.94;5097356;28;20055;-46
2022/04/06 09:33:21;;;;;;;2.60;0.60;;;;;;;12.06;64.53;99009.38;5080263;28;20495;-49
2022/04/06 09:35:48;;;;;;;1.65;0.50;;;;;;;12.11;64.07;99018.34;5096961;28;20031;-45
2022/04/06 09:38:22;;;;;;;3.05;0.68;;;;;;;12.30;62.59;99018.97;5115470;28;20034;-44
2022/04/06 09:40:59;;;;;;;4.43;0.80;;;;;;;12.12;63.64;99013.78;5115238;28;20519;-45
2022/04/06 09:43:28;;;;;;;6.15;0.50;;;;;;;11.66;65.42;99015.50;5098523;28;20089;-46
2022/04/06 09:48:57;;;;;;;2.15;0.80;;;;;;;11.07;67.71;99002.94;5099857;28;20063;-47
2022/04/06 09:51:23;;;;;;;5.35;0.90;;;;;;;11.01;67.46;99007.38;5115198;28;20106;-51
2022/04/06 09:53:50;;;;;;;3.22;0.60;;;;;;;11.06;67.31;98981.66;5114725;28;20063;-52
2022/04/06 09:56:17;;;;;;;3.40;0.73;;;;;;;11.16;67.23;98963.91;5096466;28;20024;-50
2022/04/06 09:58:45;;;;;;;5.20;0.98;;;;;;;11.51;66.08;98973.78;5096452;28;20081;-50
2022/04/06 10:01:13;;;;;;;4.38;1.40;;;;;;;11.92;64.83;98963.06;5096742;28;20055;-46
2022/04/06 10:03:43;;;;;;;3.10;1.05;;;;;;;12.41;62.18;98952.69;5114397;28;20091;-48
2022/04/06 10:06:10;;;;;;;7.28;1.48;;;;;;;13.07;60.31;98960.19;5096440;28;20024;-47
2022/04/06 10:08:39;;;;;;;2.58;0.90;;;;;;;13.67;57.87;98951.31;5096326;28;20079;-45
2022/04/06 10:11:05;;;;;;;2.92;0.88;;;;;;;13.38;58.23;98934.50;5096402;28;20038;-46
2022/04/06 10:13:32;;;;;;;2.75;1.10;;;;;;;13.34;57.94;98920.69;5114338;28;20039;-45
2022/04/06 10:15:59;;;;;;;6.25;1.45;;;;;;;13.12;57.15;98933.31;5114388;28;20054;-45
2022/04/06 10:18:27;;;;;;;3.42;0.80;;;;;;;12.88;58.54;98927.31;5096095;28;20036;-44
2022/04/06 10:20:59;;;;;;;4.68;1.00;;;;;;;12.67;57.72;98934.25;5096344;28;20023;-47
2022/04/06 10:23:46;;;;;;;3.22;1.10;;;;;;;12.79;57.86;98932.28;5114556;28;20467;-45
2022/04/06 10:26:51;;;;;;;3.92;1.13;;;;;;;12.95;57.82;98923.38;5113437;28;20039;-45
2022/04/06 10:29:17;;;;;;;3.92;0.90;;;;;;;13.11;56.91;98916.34;5071475;28;20032;-44
2022/04/06 10:31:46;;;;;;;3.17;0.85;;;;;;;13.53;56.39;98904.22;5114396;28;20032;-45
2022/04/06 10:34:22;;;;;;;3.75;1.00;;;;;;;13.94;54.47;98893.88;5113941;28;20039;-45
2022/04/06 10:37:08;;;;;;;5.95;1.30;;;;;;;14.15;53.01;98894.88;5095673;28;20023;-48
2022/04/06 10:39:57;;;;;;;3.70;1.10;;;;;;;14.54;51.10;98883.84;5114240;28;20024;-45
2022/04/06 10:42:33;;;;;;;5.35;1.13;;;;;;;14.58;50.54;98873.38;5099694;28;20427;-44
2022/04/06 10:45:00;;;;;;;9.32;0.90;;;;;;;14.49;50.72;98843.31;5113847;28;20399;-43
2022/04/06 10:47:26;;;;;;;4.22;1.20;;;;;;;14.59;51.04;98856.13;5095997;28;20036;-48
2022/04/06 10:50:19;;;;;;;5.20;1.20;;;;;;;15.37;48.98;98845.44;5096207;28;20360;-45
2022/04/06 10:52:45;;;;;;;4.75;1.00;;;;;;;15.48;49.36;98843.56;5082730;28;20035;-47
2022/04/06 10:55:20;;;;;;;7.53;1.10;;;;;;;15.69;48.75;98841.72;5113991;28;20032;-47
2022/04/06 10:58:03;;;;;;;4.10;0.90;;;;;;;15.91;44.89;98852.38;5095409;28;20036;-45
2022/04/06 11:00:30;;;;;;;7.80;0.70;;;;;;;15.91;44.76;98846.94;5113977;28;20028;-44
2022/04/06 11:03:15;;;;;;;3.90;0.93;;;;;;;15.55;44.31;98824.41;5078500;28;20034;-45
2022/04/06 11:05:44;;;;;;;11.05;1.05;;;;;;;16.13;44.13;98816.13;5079150;28;20044;-47
2022/04/06 11:11:36;;;;;;;2.95;0.77;;;;;;;16.54;43.47;98810.66;5098527;28;20028;-50
2022/04/06 11:14:02;;;;;;;;;;;;;;;16.34;42.29;98827.75;5088338;28;20387;-46
2022/04/06 11:16:46;;;;;;;7.45;0.90;;;;;;;15.57;43.83;98819.53;5113662;28;19907;-47
2022/04/06 11:19:14;;;;;;;2.60;0.60;;;;;;;15.10;44.99;98813.16;5095533;28;20028;-47
2022/04/06 11:21:49;;;;;;;8.15;1.00;;;;;;;14.98;45.81;98791.75;5114081;28;20036;-46
2022/04/06 11:24:19;;;;;;;2.92;0.60;;;;;;;15.04;46.99;98779.88;5113227;28;20106;-46
2022/04/06 11:26:44;;;;;;;1.63;0.73;;;;;;;15.14;45.77;98783.72;5113120;28;20059;-44
2022/04/06 11:29:11;;;;;;;2.42;1.10;;;;;;;15.31;46.16;98781.59;5113275;28;20055;-48
2022/04/06 11:31:58;;;;;;;3.42;1.00;;;;;;;15.34;45.75;98800.00;5095021;28;20476;-44
2022/04/06 11:34:40;;;;;;;7.47;1.10;;;;;;;15.16;45.35;98760.72;5098672;28;20035;-44
2022/04/06 11:37:08;;;;;;;5.38;1.23;;;;;;;15.12;46.24;98762.34;5114045;28;20020;-46
2022/04/06 11:39:35;;;;;;;2.65;0.80;;;;;;;15.24;46.57;98767.50;5117490;28;20089;-45
2022/04/06 11:42:04;;;;;;;5.97;0.90;;;;;;;15.55;45.12;98765.69;5117905;28;20096;-47
2022/04/06 11:44:31;;;;;;;6.20;1.15;;;;;;;15.61;45.13;98777.31;5099414;28;20035;-46
2022/04/06 11:46:57;;;;;;;6.60;0.98;;;;;;;15.46;45.83;98775.41;5117732;28;20039;-45
2022/04/06 11:49:24;;;;;;;4.25;1.00;;;;;;;15.33;45.91;98784.84;5099435;28;20039;-48